Time;durP1;ratioP1;P1;durP2;ratioP2;P2;SDS_P1;SDS_P2;PMS_P1;PMS_P2;Temp;Humidity;BMP_temperature;BMP_pressure;BME280_temperature;BME280_humidity;BME280_pressure;Samples;Min_cycle;Max_cycle;Signal;HPM_P1;HPM_P2
2021/07/22 00:00:53;;;;;;;33.15;18.83;;;;;;;18.89;73.26;102146.75;5074307;28;20024;-61
2021/07/22 00:03:19;;;;;;;34.58;19.75;;;;;;;18.79;73.65;102137.88;5074603;28;20028;-61
2021/07/22 00:05:44;;;;;;;35.85;20.42;;;;;;;18.77;73.97;102144.16;5074617;28;20035;-62
2021/07/22 00:08:11;;;;;;;36.40;21.27;;;;;;;18.62;74.26;102137.16;5074131;28;20028;-63
2021/07/22 00:10:41;;;;;;;36.78;21.27;;;;;;;18.51;74.84;102136.34;5074623;28;20131;-65
2021/07/22 00:13:07;;;;;;;39.53;22.15;;;;;;;18.41;75.47;102143.59;5074140;28;20540;-64
2021/07/22 00:15:33;;;;;;;35.60;21.48;;;;;;;18.34;75.66;102145.41;5074147;28;20028;-66
2021/07/22 00:17:59;;;;;;;36.88;22.23;;;;;;;18.32;76.03;102138.28;5074289;28;20033;-63
2021/07/22 00:20:24;;;;;;;36.00;21.13;;;;;;;18.26;75.59;102140.13;5073905;28;20024;-63
2021/07/22 00:22:50;;;;;;;37.67;21.70;;;;;;;18.20;75.74;102141.94;5073949;28;20063;-65
2021/07/22 00:25:15;;;;;;;37.15;21.77;;;;;;;18.16;77.14;102141.09;5073875;28;20024;-64
2021/07/22 00:27:40;;;;;;;39.85;22.02;;;;;;;18.10;77.43;102131.31;5073904;28;20031;-62
2021/07/22 00:30:07;;;;;;;36.83;22.77;;;;;;;17.95;78.06;102142.09;5074078;28;20028;-61
2021/07/22 00:32:33;;;;;;;38.53;21.92;;;;;;;17.93;77.61;102138.56;5073998;28;20020;-61
2021/07/22 00:34:59;;;;;;;37.55;21.63;;;;;;;17.92;77.91;102132.28;5074079;28;20032;-61
2021/07/22 00:37:24;;;;;;;36.08;20.95;;;;;;;17.90;77.44;102130.53;5073851;28;20017;-61
2021/07/22 00:39:49;;;;;;;37.20;21.40;;;;;;;17.81;77.72;102136.81;5073456;28;20021;-61
2021/07/22 00:42:15;;;;;;;38.10;22.20;;;;;;;17.73;78.33;102135.94;5073626;28;20028;-61
2021/07/22 00:44:40;;;;;;;35.75;21.40;;;;;;;17.69;78.65;102131.50;5073672;28;20502;-61
2021/07/22 00:47:05;;;;;;;36.80;21.00;;;;;;;17.73;78.89;102136.81;5073436;28;20510;-62
2021/07/22 00:49:31;;;;;;;37.70;21.88;;;;;;;17.65;79.39;102130.66;5073256;28;20048;-62
2021/07/22 00:51:56;;;;;;;36.70;21.60;;;;;;;17.61;79.02;102128.88;5073568;28;20463;-61
2021/07/22 00:54:21;;;;;;;37.30;21.95;;;;;;;17.55;79.39;102126.25;5073491;28;20102;-61
2021/07/22 00:56:47;;;;;;;35.10;20.98;;;;;;;17.48;78.97;102130.72;5073166;28;20027;-61
2021/07/22 00:59:12;;;;;;;36.17;20.80;;;;;;;17.39;80.28;102123.63;5073997;28;20376;-61
2021/07/22 01:01:38;;;;;;;36.75;20.85;;;;;;;17.36;79.65;102114.75;5073332;28;20450;-61
2021/07/22 01:04:03;;;;;;;36.30;21.33;;;;;;;17.34;79.72;102120.06;5073286;28;20067;-61
2021/07/22 01:06:28;;;;;;;35.00;20.63;;;;;;;17.30;79.59;102115.66;5073779;28;20040;-61
2021/07/22 01:08:54;;;;;;;35.60;20.98;;;;;;;17.29;80.08;102129.88;5073125;28;20145;-61
2021/07/22 01:11:20;;;;;;;36.58;20.77;;;;;;;17.27;80.34;102121.00;5073074;28;20426;-61
2021/07/22 01:13:45;;;;;;;36.25;21.13;;;;;;;17.29;80.49;102124.53;5073089;28;20029;-62
2021/07/22 01:16:11;;;;;;;36.72;20.30;;;;;;;17.24;80.63;102120.97;5073005;28;20025;-61
2021/07/22 01:18:36;;;;;;;38.42;21.88;;;;;;;17.22;81.06;102117.44;5072995;28;20064;-61
2021/07/22 01:21:06;;;;;;;35.70;21.33;;;;;;;17.18;80.96;102123.69;5072903;28;20047;-61
2021/07/22 01:23:31;;;;;;;37.15;21.23;;;;;;;17.17;81.36;102113.88;5069247;28;20043;-61
2021/07/22 01:25:56;;;;;;;35.78;20.15;;;;;;;17.15;80.09;102115.69;5073089;28;20029;-62
2021/07/22 01:28:21;;;;;;;33.65;19.42;;;;;;;17.15;79.30;102116.56;5072724;28;20125;-61
2021/07/22 01:30:47;;;;;;;33.42;18.42;;;;;;;17.09;79.65;102116.59;5072267;28;20163;-61
2021/07/22 01:33:12;;;;;;;35.42;20.15;;;;;;;17.03;80.12;102114.81;5072980;28;20043;-62
2021/07/22 01:35:37;;;;;;;35.67;20.15;;;;;;;16.98;81.41;102113.94;5072709;28;20032;-66
2021/07/22 01:38:03;;;;;;;35.22;19.40;;;;;;;16.96;80.74;102121.06;5072742;28;20028;-65
2021/07/22 01:40:28;;;;;;;34.33;20.15;;;;;;;16.93;81.40;102112.19;5073215;28;20033;-67
2021/07/22 01:42:54;;;;;;;37.92;21.35;;;;;;;16.87;81.50;102118.38;5072420;28;20028;-66
2021/07/22 01:45:19;;;;;;;34.50;19.92;;;;;;;16.84;80.85;102115.72;5072499;28;20123;-67
2021/07/22 01:47:44;;;;;;;39.10;21.85;;;;;;;16.81;82.04;102113.06;5072554;28;20040;-67
2021/07/22 01:50:10;;;;;;;37.90;21.52;;;;;;;16.79;81.96;102122.84;5072762;28;20054;-66
2021/07/22 01:52:35;;;;;;;35.90;21.65;;;;;;;16.75;81.86;102119.28;5072758;28;20082;-67
2021/07/22 01:55:01;;;;;;;36.92;22.40;;;;;;;16.66;82.21;102109.50;5072804;28;20016;-67
2021/07/22 01:57:26;;;;;;;39.05;22.52;;;;;;;16.54;82.62;102110.41;5072720;28;20025;-66
2021/07/22 01:59:53;;;;;;;37.72;22.15;;;;;;;16.56;82.34;102113.97;5072511;28;20021;-66
2021/07/22 02:02:18;;;;;;;37.60;22.17;;;;;;;16.54;82.25;102113.09;5072390;28;20036;-67
2021/07/22 02:04:43;;;;;;;40.08;23.15;;;;;;;16.48;82.50;102120.19;5072425;28;20025;-66
2021/07/22 02:07:10;;;;;;;39.28;22.88;;;;;;;16.41;82.88;102116.66;5072571;28;20029;-66
2021/07/22 02:09:36;;;;;;;37.80;22.67;;;;;;;16.37;83.60;102123.75;5072362;28;20374;-66
2021/07/22 02:12:02;;;;;;;39.78;24.17;;;;;;;16.31;83.74;102120.19;5072871;28;20032;-66
2021/07/22 02:14:28;;;;;;;39.42;22.52;;;;;;;16.29;84.25;102113.97;5068238;28;20107;-67
2021/07/22 02:16:53;;;;;;;38.88;23.05;;;;;;;16.28;84.43;102117.50;5072371;28;20523;-65
2021/07/22 02:19:19;;;;;;;39.50;23.52;;;;;;;16.18;84.65;102109.50;5072136;28;20025;-62
2021/07/22 02:21:45;;;;;;;38.42;22.17;;;;;;;16.19;84.37;102111.28;5072751;28;20056;-64
2021/07/22 02:24:11;;;;;;;41.70;23.42;;;;;;;16.16;84.53;102115.72;5072499;28;20029;-63
2021/07/22 02:26:37;;;;;;;36.35;21.70;;;;;;;16.26;83.74;102109.50;5072121;28;20083;-62
2021/07/22 02:29:04;;;;;;;38.78;22.83;;;;;;;16.25;84.94;102118.41;5072318;28;20506;-62
2021/07/22 02:31:29;;;;;;;38.30;22.27;;;;;;;16.28;83.69;102113.09;5068237;28;20154;-65
2021/07/22 02:33:54;;;;;;;40.90;22.42;;;;;;;16.28;83.76;102110.41;5072197;28;20107;-61
2021/07/22 02:36:20;;;;;;;36.88;21.55;;;;;;;16.20;83.33;102112.19;5072396;28;20028;-62
2021/07/22 02:38:45;;;;;;;36.88;21.67;;;;;;;16.21;83.55;102119.31;5072022;28;20356;-62
2021/07/22 02:41:11;;;;;;;37.55;22.23;;;;;;;16.22;83.85;102118.38;5072318;28;20056;-64
2021/07/22 02:43:36;;;;;;;37.95;21.02;;;;;;;16.16;83.15;102110.38;5073257;28;20029;-63
2021/07/22 02:46:11;;;;;;;35.78;20.40;;;;;;;16.15;82.18;102108.59;5075686;28;20039;-62
2021/07/22 02:48:37;;;;;;;38.33;22.00;;;;;;;16.03;83.63;102118.38;5072608;28;20037;-62
2021/07/22 02:51:04;;;;;;;38.53;22.65;;;;;;;15.99;84.91;102124.59;5075929;28;20024;-62
2021/07/22 02:53:29;;;;;;;38.38;23.42;;;;;;;15.95;85.08;102125.47;5071756;28;20025;-63
2021/07/22 02:55:59;;;;;;;37.60;22.67;;;;;;;15.93;84.40;102129.91;5075734;28;20031;-63
2021/07/22 02:58:24;;;;;;;37.63;22.35;;;;;;;15.97;84.04;102121.00;5075676;28;20028;-62
2021/07/22 03:00:50;;;;;;;40.03;23.35;;;;;;;15.91;85.59;102121.00;5075470;28;20380;-61
2021/07/22 03:03:15;;;;;;;39.72;22.52;;;;;;;15.95;84.57;102122.81;5075660;28;20056;-61
2021/07/22 03:05:40;;;;;;;38.53;22.58;;;;;;;15.92;84.41;102120.13;5075871;28;20033;-61
2021/07/22 03:08:06;;;;;;;39.60;23.55;;;;;;;15.94;83.99;102123.69;5075466;28;20016;-61
2021/07/22 03:10:31;;;;;;;41.20;23.83;;;;;;;15.88;84.72;102118.34;5075633;28;20028;-61
2021/07/22 03:12:56;;;;;;;40.75;24.77;;;;;;;15.91;85.43;102121.00;5075292;28;20548;-62
2021/07/22 03:15:22;;;;;;;39.05;23.05;;;;;;;15.90;85.32;102118.34;5075160;28;20052;-61
2021/07/22 03:17:47;;;;;;;41.35;25.52;;;;;;;15.93;86.34;102123.69;5075389;28;20146;-61
2021/07/22 03:20:13;;;;;;;39.55;23.15;;;;;;;15.92;85.16;102122.81;5075173;28;20020;-61
2021/07/22 03:22:38;;;;;;;40.15;24.13;;;;;;;15.91;85.20;102121.00;5075116;28;20029;-61
2021/07/22 03:25:04;;;;;;;40.75;24.63;;;;;;;15.92;86.11;102120.13;5075553;28;20027;-61
2021/07/22 03:27:29;;;;;;;40.45;24.23;;;;;;;15.84;85.92;102119.22;5071057;28;20025;-62
2021/07/22 03:29:54;;;;;;;40.67;25.30;;;;;;;15.78;87.04;102122.75;5074971;28;20024;-61
2021/07/22 03:32:20;;;;;;;42.20;25.45;;;;;;;15.75;86.88;102124.50;5075692;28;20115;-62
2021/07/22 03:34:45;;;;;;;42.75;24.85;;;;;;;15.65;86.83;102118.22;5074838;28;20111;-63
2021/07/22 03:37:10;;;;;;;43.22;25.70;;;;;;;15.65;88.61;102116.47;5074862;28;20028;-63
2021/07/22 03:39:36;;;;;;;42.28;24.75;;;;;;;15.64;87.37;102111.13;5075123;28;20017;-63
2021/07/22 03:42:01;;;;;;;41.67;24.60;;;;;;;15.55;87.43;102119.97;5074768;28;20025;-63
2021/07/22 03:44:26;;;;;;;39.55;24.17;;;;;;;15.50;87.67;102109.28;5074868;28;20028;-62
2021/07/22 03:46:52;;;;;;;41.00;23.98;;;;;;;15.43;87.57;102109.28;5074504;28;20044;-63
2021/07/22 03:49:17;;;;;;;42.63;23.95;;;;;;;15.40;86.83;102110.16;5074506;28;20044;-63
2021/07/22 03:51:42;;;;;;;40.60;22.83;;;;;;;15.39;87.31;102102.16;5075111;28;20021;-62
2021/07/22 03:54:08;;;;;;;39.40;23.15;;;;;;;15.36;87.70;102107.47;5074201;28;20024;-61
2021/07/22 03:56:36;;;;;;;40.53;24.20;;;;;;;15.43;87.91;102115.47;5074880;28;20058;-63
2021/07/22 03:59:02;;;;;;;40.60;24.30;;;;;;;15.32;88.46;102110.13;5071051;28;20035;-67
2021/07/22 04:01:27;;;;;;;41.25;23.55;;;;;;;15.34;88.04;102108.34;5074347;28;20020;-67
2021/07/22 04:03:54;;;;;;;41.75;24.40;;;;;;;15.33;88.28;102100.34;5074418;28;20024;-67
2021/07/22 04:06:20;;;;;;;42.10;24.02;;;;;;;15.37;88.29;102103.94;5074622;28;20040;-68
2021/07/22 04:08:45;;;;;;;41.10;23.35;;;;;;;15.31;88.13;102104.78;5074299;28;20417;-67
2021/07/22 04:11:10;;;;;;;41.00;24.83;;;;;;;15.27;89.10;102109.19;5074369;28;20025;-66
2021/07/22 04:13:36;;;;;;;40.05;23.48;;;;;;;15.31;89.23;102111.00;5074401;28;20078;-66
2021/07/22 04:16:02;;;;;;;43.47;24.95;;;;;;;15.38;89.99;102114.59;5074570;28;20052;-66
2021/07/22 04:18:28;;;;;;;45.38;26.42;;;;;;;15.42;90.15;102116.38;5074300;28;20025;-66
2021/07/22 04:20:53;;;;;;;44.53;26.23;;;;;;;15.51;89.89;102112.88;5074519;28;20032;-66
2021/07/22 04:23:18;;;;;;;39.83;23.42;;;;;;;15.47;89.08;102111.06;5073959;28;20035;-68
2021/07/22 04:25:46;;;;;;;45.08;25.02;;;;;;;15.54;90.92;102114.63;5073888;28;20150;-66
2021/07/22 04:28:11;;;;;;;46.25;26.70;;;;;;;15.71;93.38;102122.69;5074030;28;20522;-67
2021/07/22 04:30:37;;;;;;;45.45;26.80;;;;;;;15.76;93.39;102113.84;5073773;28;20120;-67
2021/07/22 04:33:03;;;;;;;47.25;25.83;;;;;;;15.81;93.01;102128.13;5073756;28;20475;-64
2021/07/22 04:35:28;;;;;;;46.00;26.77;;;;;;;15.89;93.16;102120.13;5073880;28;20029;-72
2021/07/22 04:37:53;;;;;;;45.85;25.85;;;;;;;16.00;93.89;102115.72;5073689;28;20021;-66
2021/07/22 04:40:19;;;;;;;48.35;27.50;;;;;;;16.04;94.56;102127.25;5073804;28;20506;-66
2021/07/22 04:42:44;;;;;;;49.53;27.60;;;;;;;16.15;94.96;102120.19;5073489;28;20032;-66
2021/07/22 04:45:10;;;;;;;48.05;27.30;;;;;;;16.27;94.11;102119.28;5073684;28;20036;-68
2021/07/22 04:47:35;;;;;;;51.88;27.35;;;;;;;16.34;94.85;102126.41;5073421;28;20086;-66
2021/07/22 04:50:01;;;;;;;47.55;26.35;;;;;;;16.40;94.04;102128.22;5073481;28;20052;-66
2021/07/22 04:52:26;;;;;;;47.33;26.13;;;;;;;16.39;93.65;102124.63;5073424;28;20025;-66
2021/07/22 04:54:51;;;;;;;47.95;27.17;;;;;;;16.46;94.07;102133.53;5073568;28;20028;-66
2021/07/22 04:57:17;;;;;;;46.70;26.58;;;;;;;16.50;93.92;102121.97;5073160;28;20031;-66
2021/07/22 04:59:42;;;;;;;47.47;25.63;;;;;;;16.57;93.38;102130.84;5073364;28;20062;-66
2021/07/22 05:02:07;;;;;;;48.55;26.63;;;;;;;16.60;93.39;102130.88;5073361;28;20062;-66
2021/07/22 05:04:33;;;;;;;47.22;26.75;;;;;;;16.66;93.51;102136.22;5073406;28;20059;-66
2021/07/22 05:06:58;;;;;;;46.17;25.45;;;;;;;16.67;93.13;102138.00;5072915;28;20024;-66
2021/07/22 05:09:23;;;;;;;47.75;25.92;;;;;;;16.68;93.67;102134.41;5073339;28;20024;-66
2021/07/22 05:11:55;;;;;;;46.20;26.52;;;;;;;16.68;93.80;102138.88;5073326;28;20028;-67
2021/07/22 05:14:20;;;;;;;46.70;25.77;;;;;;;16.73;93.77;102140.66;5073718;28;20024;-66
2021/07/22 05:16:46;;;;;;;46.58;25.73;;;;;;;16.74;94.38;102139.75;5073473;28;20020;-65
2021/07/22 05:19:11;;;;;;;44.58;25.83;;;;;;;16.79;93.83;102137.09;5072710;28;20502;-66
2021/07/22 05:21:36;;;;;;;44.20;24.98;;;;;;;16.85;93.47;102141.53;5073411;28;20028;-67
2021/07/22 05:24:02;;;;;;;45.95;25.33;;;;;;;16.90;93.12;102142.44;5072833;28;20059;-66
2021/07/22 05:26:27;;;;;;;45.85;25.20;;;;;;;16.92;93.23;102138.00;5072794;28;20040;-66
2021/07/22 05:28:53;;;;;;;45.58;25.23;;;;;;;16.96;93.19;102137.09;5071521;28;20028;-62
2021/07/22 05:31:18;;;;;;;43.97;24.08;;;;;;;17.08;91.78;102144.19;5078527;28;20068;-62
2021/07/22 05:33:43;;;;;;;43.90;24.90;;;;;;;17.14;92.17;102140.59;5072251;28;20483;-62
2021/07/22 05:36:09;;;;;;;42.83;23.95;;;;;;;17.17;90.93;102143.28;5075102;28;20040;-61
2021/07/22 05:38:36;;;;;;;43.50;23.27;;;;;;;17.13;91.39;102141.53;5076685;28;20055;-62
2021/07/22 05:41:06;;;;;;;44.03;24.38;;;;;;;17.15;91.75;102143.28;5077484;28;20090;-65
2021/07/22 05:43:33;;;;;;;43.33;24.13;;;;;;;17.23;91.59;102151.28;5075256;28;20031;-63
2021/07/22 05:45:58;;;;;;;43.67;24.77;;;;;;;17.23;91.80;102144.16;5077322;28;20039;-63
2021/07/22 05:48:24;;;;;;;43.47;24.33;;;;;;;17.31;90.48;102143.25;5076562;28;20044;-64
2021/07/22 05:50:50;;;;;;;41.08;23.63;;;;;;;17.33;91.57;102144.13;5076533;28;20048;-62
2021/07/22 05:53:17;;;;;;;43.08;24.08;;;;;;;17.33;91.63;102136.09;5076406;28;20044;-63
2021/07/22 05:55:42;;;;;;;45.67;24.15;;;;;;;17.41;91.64;102137.84;5074872;28;20104;-64
2021/07/22 05:58:08;;;;;;;42.58;23.70;;;;;;;17.46;90.63;102135.19;5077471;28;20130;-62
2021/07/22 06:00:33;;;;;;;42.97;23.98;;;;;;;17.51;89.76;102137.84;5073713;28;20035;-61
2021/07/22 06:02:59;;;;;;;41.72;23.75;;;;;;;17.53;89.99;102136.94;5075194;28;20568;-62
2021/07/22 06:05:25;;;;;;;42.03;23.88;;;;;;;17.59;89.91;102134.22;5077688;28;20086;-63
2021/07/22 06:07:50;;;;;;;44.65;25.00;;;;;;;17.60;90.84;102146.72;5073442;28;20029;-63
2021/07/22 06:10:16;;;;;;;42.47;24.80;;;;;;;17.65;90.27;102137.75;5074239;28;20056;-65
2021/07/22 06:12:42;;;;;;;41.58;24.05;;;;;;;17.73;90.20;102149.31;5073276;28;20078;-65
2021/07/22 06:15:09;;;;;;;42.75;23.83;;;;;;;17.80;89.95;102143.03;5072686;28;20024;-65
2021/07/22 06:17:35;;;;;;;42.92;24.45;;;;;;;17.85;89.85;102140.34;5076561;28;20038;-62
2021/07/22 06:20:01;;;;;;;44.33;24.27;;;;;;;17.89;89.68;102148.31;5079643;28;20414;-64
2021/07/22 06:22:26;;;;;;;42.53;25.02;;;;;;;17.94;89.03;102151.03;5081827;28;20052;-65
2021/07/22 06:24:51;;;;;;;43.58;25.17;;;;;;;17.96;89.61;102146.56;5082351;28;20508;-63
2021/07/22 06:27:17;;;;;;;44.97;25.65;;;;;;;18.08;89.66;102143.78;5079039;28;20024;-63
2021/07/22 06:29:42;;;;;;;45.58;25.70;;;;;;;18.09;88.60;102147.38;5081906;28;20020;-63
2021/07/22 06:32:08;;;;;;;44.28;24.95;;;;;;;18.15;89.69;102139.31;5081609;28;20545;-64
2021/07/22 06:34:33;;;;;;;46.00;24.90;;;;;;;18.22;87.96;102146.38;5077868;28;20020;-64
2021/07/22 06:36:58;;;;;;;43.42;25.50;;;;;;;18.26;88.17;102144.56;5074549;28;20046;-62
2021/07/22 06:39:24;;;;;;;44.75;25.77;;;;;;;18.32;87.09;102146.31;5072658;28;20104;-63
2021/07/22 06:41:49;;;;;;;46.53;26.50;;;;;;;18.39;87.33;102148.94;5073758;28;20024;-62
2021/07/22 06:44:14;;;;;;;44.45;24.98;;;;;;;18.46;86.28;102150.69;5070650;28;20394;-62
2021/07/22 06:46:40;;;;;;;43.67;25.75;;;;;;;18.48;86.19;102137.28;5070303;28;20086;-66
2021/07/22 06:49:05;;;;;;;43.13;25.08;;;;;;;18.57;86.45;102141.66;5071745;28;20111;-66
2021/07/22 06:51:30;;;;;;;44.88;24.95;;;;;;;18.65;85.84;102142.47;5071733;28;20021;-64
2021/07/22 06:53:55;;;;;;;43.90;25.52;;;;;;;18.70;86.05;102143.34;5076133;28;20514;-61
2021/07/22 06:56:21;;;;;;;42.20;24.17;;;;;;;18.76;85.27;102150.44;5081432;28;20031;-62
2021/07/22 06:58:49;;;;;;;43.63;24.05;;;;;;;18.80;85.65;102142.34;5082193;28;20066;-66
2021/07/22 07:01:17;;;;;;;41.55;24.10;;;;;;;18.91;84.36;102147.63;5081116;28;20732;-62
2021/07/22 07:03:43;;;;;;;41.55;23.25;;;;;;;18.99;83.10;102142.22;5077685;28;20036;-63
2021/07/22 07:06:08;;;;;;;42.95;23.75;;;;;;;19.09;82.40;102143.88;5081092;28;20120;-65
2021/07/22 07:08:33;;;;;;;43.58;23.48;;;;;;;19.14;81.97;102139.34;5080733;28;20051;-64
2021/07/22 07:10:59;;;;;;;43.13;23.23;;;;;;;19.23;82.26;102143.72;5080208;28;20016;-62
2021/07/22 07:13:25;;;;;;;40.97;23.35;;;;;;;19.30;81.45;102144.53;5081022;28;20432;-62
2021/07/22 07:15:50;;;;;;;40.90;23.00;;;;;;;19.37;80.54;102151.63;5079964;28;20021;-65
2021/07/22 07:18:15;;;;;;;39.70;22.50;;;;;;;19.41;80.51;102145.31;5079334;28;20034;-63
2021/07/22 07:20:41;;;;;;;40.97;23.35;;;;;;;19.48;79.16;102149.69;5080310;28;20107;-63
2021/07/22 07:23:06;;;;;;;40.38;21.98;;;;;;;19.52;79.19;102151.41;5079094;28;20386;-62
2021/07/22 07:25:33;;;;;;;39.25;22.25;;;;;;;19.55;78.44;102158.53;5082255;28;20070;-62
2021/07/22 07:27:59;;;;;;;39.90;21.70;;;;;;;19.64;77.72;102157.53;5078702;28;20485;-61
2021/07/22 07:30:25;;;;;;;41.08;22.83;;;;;;;19.73;78.21;102153.84;5078673;28;20028;-62
2021/07/22 07:32:54;;;;;;;38.75;21.52;;;;;;;19.88;76.95;102161.72;5076890;28;20488;-63
2021/07/22 07:35:23;;;;;;;40.13;22.35;;;;;;;20.00;76.06;102164.22;5077445;28;20427;-64
2021/07/22 07:37:48;;;;;;;39.70;22.35;;;;;;;20.10;74.79;102158.75;5075123;28;20408;-64
2021/07/22 07:40:14;;;;;;;39.42;22.17;;;;;;;20.18;74.10;102160.41;5077371;28;20154;-65
2021/07/22 07:42:39;;;;;;;39.03;22.20;;;;;;;20.22;73.75;102157.66;5080930;28;20067;-63
2021/07/22 07:45:06;;;;;;;39.75;21.85;;;;;;;20.34;72.28;102168.19;5082034;28;20025;-65
2021/07/22 07:47:31;;;;;;;38.28;22.13;;;;;;;20.50;72.45;102169.75;5077023;28;20131;-65
2021/07/22 07:49:56;;;;;;;38.55;21.10;;;;;;;20.71;72.10;102171.22;5081646;28;20183;-66
2021/07/22 07:52:22;;;;;;;37.20;19.70;;;;;;;20.89;69.94;102161.94;5075685;28;20032;-63
2021/07/22 07:54:51;;;;;;;36.53;21.02;;;;;;;21.03;68.30;102168.88;5077786;28;20120;-62
2021/07/22 07:57:16;;;;;;;37.20;19.95;;;;;;;21.22;69.21;102175.66;5080860;28;20036;-62
2021/07/22 07:59:42;;;;;;;39.38;20.88;;;;;;;21.23;68.56;102165.78;5077549;28;20044;-63
2021/07/22 08:02:08;;;;;;;37.45;21.13;;;;;;;21.49;67.78;102167.97;5077100;28;20031;-63
2021/07/22 08:04:35;;;;;;;35.92;19.45;;;;;;;21.59;65.92;102163.31;5075360;28;20024;-62
2021/07/22 08:07:00;;;;;;;36.45;19.27;;;;;;;21.59;66.03;102161.50;5069944;28;20075;-62
2021/07/22 08:09:25;;;;;;;36.67;19.77;;;;;;;21.68;65.46;102159.53;5068015;28;20083;-65
2021/07/22 08:11:51;;;;;;;34.83;19.38;;;;;;;21.70;64.99;102163.09;5068753;28;20020;-65
2021/07/22 08:14:16;;;;;;;33.40;17.20;;;;;;;21.88;62.97;102161.81;5069165;28;20045;-63
2021/07/22 08:16:43;;;;;;;35.42;19.05;;;;;;;21.97;63.49;102163.41;5078280;28;20089;-65
2021/07/22 08:19:09;;;;;;;33.78;18.80;;;;;;;22.16;62.70;102159.34;5070777;28;20028;-65
2021/07/22 08:21:34;;;;;;;35.45;17.83;;;;;;;22.28;62.31;102160.91;5073498;28;20024;-64
2021/07/22 08:23:59;;;;;;;37.08;17.95;;;;;;;22.51;60.60;102154.94;5068410;28;20025;-65
2021/07/22 08:26:24;;;;;;;34.60;17.83;;;;;;;22.53;61.74;102157.59;5071849;28;20069;-66
2021/07/22 08:28:50;;;;;;;35.63;18.42;;;;;;;22.56;61.23;102155.72;5067464;28;20559;-65
2021/07/22 08:31:17;;;;;;;33.05;17.17;;;;;;;22.68;59.21;102162.63;5070799;28;20100;-66
2021/07/22 08:33:42;;;;;;;33.05;16.77;;;;;;;22.70;58.79;102160.78;5072220;28;20127;-65
2021/07/22 08:36:08;;;;;;;31.63;16.85;;;;;;;22.65;58.81;102161.81;5074274;28;20091;-65
2021/07/22 08:38:33;;;;;;;32.53;16.85;;;;;;;22.93;58.23;102162.84;5076153;28;20166;-65
2021/07/22 08:40:59;;;;;;;29.10;15.38;;;;;;;23.39;58.07;102160.72;5082276;28;20027;-62
2021/07/22 08:43:27;;;;;;;33.03;17.35;;;;;;;23.71;55.26;102155.28;5078783;28;20033;-62
2021/07/22 08:45:54;;;;;;;33.42;17.00;;;;;;;24.41;56.26;102157.63;5069307;28;20119;-61
2021/07/22 08:48:21;;;;;;;32.05;16.75;;;;;;;24.85;53.71;102157.94;5070018;28;20048;-62
2021/07/22 08:50:48;;;;;;;31.48;16.63;;;;;;;24.95;53.78;102161.22;5065398;28;20505;-65
2021/07/22 08:53:14;;;;;;;34.00;17.23;;;;;;;24.94;52.20;102167.56;5065233;28;20021;-62
2021/07/22 08:55:44;;;;;;;31.52;17.02;;;;;;;24.89;53.12;102161.44;5060786;28;20490;-63
2021/07/22 08:58:10;;;;;;;34.42;17.83;;;;;;;24.85;53.21;102157.06;5064181;28;20056;-63
2021/07/22 09:00:35;;;;;;;32.70;17.13;;;;;;;24.98;51.50;102157.53;5063080;28;20071;-65
2021/07/22 09:03:01;;;;;;;31.23;14.93;;;;;;;24.77;50.58;102153.75;5067870;28;20020;-62
2021/07/22 09:05:27;;;;;;;30.25;14.50;;;;;;;24.49;51.40;102160.06;5064072;28;20041;-63
2021/07/22 09:07:52;;;;;;;31.92;14.90;;;;;;;24.38;51.76;102163.13;5072047;28;20093;-65
2021/07/22 09:10:19;;;;;;;30.00;14.57;;;;;;;24.54;52.04;102158.09;5070434;28;20020;-63
2021/07/22 09:12:46;;;;;;;33.25;15.68;;;;;;;24.65;50.66;102161.34;5067741;28;20032;-65
2021/07/22 09:15:23;;;;;;;30.40;15.23;;;;;;;24.83;49.87;102149.03;5068109;28;20024;-63
2021/07/22 09:17:49;;;;;;;30.10;14.85;;;;;;;24.87;50.58;102150.69;5069699;28;20024;-66
2021/07/22 09:20:35;;;;;;;30.02;15.15;;;;;;;24.88;51.24;102148.84;5072253;28;20043;-65
2021/07/22 09:23:03;;;;;;;31.20;15.85;;;;;;;24.95;50.18;102149.53;5070019;28;20048;-66
2021/07/22 09:25:42;;;;;;;30.25;14.13;;;;;;;24.99;49.28;102146.66;5069218;28;20496;-62
2021/07/22 09:28:12;;;;;;;27.45;12.73;;;;;;;25.03;49.45;102145.63;5074602;28;20039;-62
2021/07/22 09:30:37;;;;;;;27.65;12.85;;;;;;;24.85;48.05;102146.25;5076191;28;20032;-62
2021/07/22 09:33:04;;;;;;;26.45;12.05;;;;;;;24.82;48.39;102157.19;5081098;28;20033;-64
2021/07/22 09:35:30;;;;;;;29.00;13.02;;;;;;;24.71;48.67;102153.03;5073779;28;20032;-63
2021/07/22 09:37:57;;;;;;;30.27;13.80;;;;;;;24.92;48.89;102153.22;5075067;28;20028;-63
2021/07/22 09:40:25;;;;;;;29.48;14.13;;;;;;;25.30;48.37;102150.94;5076567;28;20038;-66
2021/07/22 09:42:55;;;;;;;33.83;14.05;;;;;;;25.63;47.76;102150.66;5077212;28;20028;-63
2021/07/22 09:45:25;;;;;;;29.00;13.60;;;;;;;25.83;48.57;102146.25;5078923;28;20134;-63
2021/07/22 09:47:52;;;;;;;29.13;13.02;;;;;;;25.66;47.56;102150.53;5077573;28;20166;-63
2021/07/22 09:50:37;;;;;;;27.88;13.02;;;;;;;25.30;47.84;102153.66;5075727;28;20046;-65
2021/07/22 09:53:08;;;;;;;27.00;11.85;;;;;;;24.85;48.21;102157.06;5076192;28;20443;-65
2021/07/22 09:55:34;;;;;;;26.73;12.73;;;;;;;24.97;47.46;102145.81;5075294;28;20017;-64
2021/07/22 09:58:01;;;;;;;28.52;12.95;;;;;;;25.29;47.80;102156.41;5079623;28;20028;-66
2021/07/22 10:00:28;;;;;;;29.30;13.52;;;;;;;26.15;46.43;102154.97;5077118;28;20027;-63
2021/07/22 10:02:56;;;;;;;28.13;13.38;;;;;;;27.12;43.39;102151.72;5076926;28;20020;-66
2021/07/22 10:05:24;;;;;;;27.15;12.65;;;;;;;28.32;40.29;102155.19;5077030;28;20029;-64
2021/07/22 10:07:52;;;;;;;27.73;13.02;;;;;;;29.56;38.89;102147.81;5075992;28;20021;-63
2021/07/22 10:10:20;;;;;;;28.35;13.60;;;;;;;30.80;35.68;102148.88;5075389;28;20024;-65
2021/07/22 10:12:53;;;;;;;26.75;12.30;;;;;;;31.95;34.49;102146.22;5076979;28;20029;-66
2021/07/22 10:15:20;;;;;;;27.83;12.52;;;;;;;33.23;32.10;102144.81;5073269;28;20020;-63
2021/07/22 10:17:48;;;;;;;29.08;12.73;;;;;;;33.16;31.91;102141.63;5079050;28;20112;-63
2021/07/22 10:20:15;;;;;;;25.85;12.00;;;;;;;33.28;31.30;102145.38;5079046;28;20028;-62
2021/07/22 10:22:45;;;;;;;28.00;12.93;;;;;;;32.63;31.46;102143.50;5077729;28;20082;-62
2021/07/22 10:25:13;;;;;;;28.10;12.65;;;;;;;31.09;34.17;102144.38;5078039;28;20029;-64
2021/07/22 10:27:43;;;;;;;25.80;12.30;;;;;;;30.78;33.96;102142.63;5072162;28;20379;-62
2021/07/22 10:30:11;;;;;;;26.95;12.75;;;;;;;30.17;34.87;102142.56;5071602;28;20027;-62
2021/07/22 10:32:38;;;;;;;26.70;12.95;;;;;;;29.36;36.63;102138.03;5071643;28;20057;-64
2021/07/22 10:35:04;;;;;;;26.85;12.63;;;;;;;30.15;35.48;102136.34;5070071;28;20033;-62
2021/07/22 10:37:29;;;;;;;25.10;10.68;;;;;;;31.20;32.83;102140.09;5067709;28;20020;-63
2021/07/22 10:40:07;;;;;;;24.30;10.65;;;;;;;32.48;31.34;102142.72;5071781;28;20020;-62
2021/07/22 10:42:47;;;;;;;25.00;10.52;;;;;;;33.98;29.14;102143.06;5068138;28;20079;-63
2021/07/22 10:45:18;;;;;;;24.58;11.18;;;;;;;34.51;28.18;102140.84;5069865;28;20471;-62
2021/07/22 10:48:24;;;;;;;25.05;11.98;;;;;;;35.19;28.21;102134.66;5072553;28;20025;-63
2021/07/22 10:50:56;;;;;;;25.55;11.43;;;;;;;35.63;26.66;102129.31;4990571;28;20038;-63
2021/07/22 10:53:44;;;;;;;25.88;10.70;;;;;;;35.63;26.76;102129.31;4990821;28;20030;-61
2021/07/22 10:56:10;;;;;;;24.35;10.48;;;;;;;35.18;25.70;102121.94;4984182;28;20551;-63
2021/07/22 10:58:36;;;;;;;24.05;9.85;;;;;;;34.01;27.37;102120.91;4990539;28;20077;-64
2021/07/22 11:01:02;;;;;;;24.13;10.80;;;;;;;32.54;28.93;102125.88;4990041;28;20048;-61
2021/07/22 11:03:37;;;;;;;24.08;11.13;;;;;;;31.63;30.46;102119.13;4990579;28;20113;-60
2021/07/22 11:06:05;;;;;;;24.85;10.43;;;;;;;32.92;29.02;102111.38;4990322;28;20089;-60